Time;durP1;ratioP1;P1;durP2;ratioP2;P2;SDS_P1;SDS_P2;PMS_P1;PMS_P2;Temp;Humidity;BMP_temperature;BMP_pressure;BME280_temperature;BME280_humidity;BME280_pressure;Samples;Min_cycle;Max_cycle;Signal;HPM_P1;HPM_P2
2020/12/28 00:05:52;;;;;;;40.92;16.35;;;;;;;0.94;76.99;97197.91;4329117;81;21160;-87
2020/12/28 00:11:56;;;;;;;37.73;15.25;;;;;;;0.83;77.09;97199.61;4317140;82;21184;-88
2020/12/28 00:18:02;;;;;;;44.20;17.70;;;;;;;0.66;77.83;97181.19;4316955;82;21508;-88
2020/12/28 00:24:04;;;;;;;42.98;18.30;;;;;;;0.67;78.22;97186.02;4341348;82;21448;-88
2020/12/28 00:30:06;;;;;;;41.02;18.15;;;;;;;0.67;78.17;97191.40;4332821;82;21188;-89
2020/12/28 00:36:08;;;;;;;36.75;16.12;;;;;;;0.44;78.12;97179.77;4377300;81;21154;-88
2020/12/28 00:42:09;;;;;;;34.80;15.48;;;;;;;0.45;78.64;97174.59;4366430;80;21140;-87
2020/12/28 00:48:13;;;;;;;38.48;15.20;;;;;;;0.45;78.64;97174.59;4326181;82;21613;-88
2020/12/28 00:54:15;;;;;;;32.80;11.85;;;;;;;0.45;78.97;97178.63;4330302;81;21182;-88
2020/12/28 01:00:16;;;;;;;32.95;13.35;;;;;;;0.65;79.84;97132.52;4344100;82;21170;-88
2020/12/28 01:06:43;;;;;;;29.95;10.58;;;;;;;0.69;79.74;97125.27;4590021;76;23330;-89
2020/12/28 01:13:07;;;;;;;22.58;8.23;;;;;;;1.28;80.95;97121.57;4446140;80;21125;-89
2020/12/28 01:19:08;;;;;;;19.50;7.15;;;;;;;1.54;80.23;97114.88;4464435;80;21578;-88
2020/12/28 01:25:11;;;;;;;18.27;7.30;;;;;;;1.54;80.23;97114.88;4465130;80;21165;-89
2020/12/28 01:31:14;;;;;;;14.95;8.23;;;;;;;1.57;79.77;97122.80;4462357;80;21157;-89
2020/12/28 01:37:30;;;;;;;20.43;8.58;;;;;;;1.63;80.10;97115.20;4579505;76;22887;-87
2020/12/28 01:43:32;;;;;;;18.12;8.10;;;;;;;0.76;79.68;97117.34;4456436;80;21140;-88
2020/12/28 01:49:34;;;;;;;14.07;5.30;;;;;;;0.56;80.49;97099.64;4456482;80;21148;-87
2020/12/28 01:55:36;;;;;;;14.40;6.75;;;;;;;0.66;80.81;97080.20;4456274;80;21291;-87
2020/12/28 02:01:42;;;;;;;16.85;6.95;;;;;;;0.66;80.81;97080.20;4455728;78;21152;-87
2020/12/28 02:07:53;;;;;;;;;;;;;;;0.55;80.51;97078.47;4458217;80;21707;-87
2020/12/28 02:13:51;;;;;;;13.22;5.85;;;;;;;0.45;81.11;97060.97;4454852;80;20293;-89
2020/12/28 02:20:17;;;;;;;15.78;6.92;;;;;;;0.55;81.46;97043.46;4404534;79;23000;-88
2020/12/28 02:26:20;;;;;;;18.48;7.70;;;;;;;0.62;81.45;97044.37;4295616;82;21159;-87
2020/12/28 02:32:21;;;;;;;17.25;7.83;;;;;;;0.70;81.54;97018.34;4354009;81;21163;-89
2020/12/28 02:38:43;;;;;;;15.78;6.70;;;;;;;0.53;80.75;97005.34;4349106;82;21533;-87
2020/12/28 02:44:45;;;;;;;18.70;8.85;;;;;;;0.34;81.09;97013.44;4335078;81;21141;-87
2020/12/28 02:51:04;;;;;;;13.98;6.55;;;;;;;0.03;81.44;97015.14;4310207;81;21597;-88
2020/12/28 02:57:24;;;;;;;15.28;6.10;;;;;;;0.03;81.44;97015.14;4293469;82;21141;-87
2020/12/28 03:03:45;;;;;;;12.82;5.60;;;;;;;-0.03;82.23;96999.08;4308446;81;21168;-89
2020/12/28 03:10:05;;;;;;;11.30;5.20;;;;;;;0.19;83.20;96978.75;4317861;81;21135;-87
2020/12/28 03:16:40;;;;;;;9.35;4.42;;;;;;;0.72;83.43;96974.34;4497375;79;22946;-88
2020/12/28 03:23:01;;;;;;;11.38;4.60;;;;;;;1.01;83.16;96979.82;4443110;80;21158;-87
2020/12/28 03:29:21;;;;;;;7.25;3.98;;;;;;;1.14;82.78;96960.20;4442572;80;21178;-87
2020/12/28 03:35:36;;;;;;;14.45;5.12;;;;;;;1.19;82.42;96947.77;4619962;76;23343;-87
2020/12/28 03:41:56;;;;;;;9.98;4.05;;;;;;;1.03;82.03;96931.75;4468785;79;21656;-87
2020/12/28 03:48:16;;;;;;;10.93;4.87;;;;;;;0.72;82.27;96922.58;4486902;79;21152;-88
2020/12/28 03:54:36;;;;;;;9.73;4.25;;;;;;;0.53;81.89;96913.81;4500927;79;21112;-88
2020/12/28 04:00:56;;;;;;;7.65;4.08;;;;;;;0.29;81.97;96899.35;4511781;79;21149;-88
2020/12/28 04:07:16;;;;;;;10.82;4.90;;;;;;;-0.19;82.22;96871.22;4516009;79;21142;-87
2020/12/28 04:13:32;;;;;;;12.50;4.83;;;;;;;-0.05;82.29;96887.61;4621592;76;22906;-87
2020/12/28 04:19:33;;;;;;;11.37;5.00;;;;;;;-0.26;82.79;96897.40;4465871;79;21144;-86
2020/12/28 04:25:35;;;;;;;8.30;4.00;;;;;;;-0.40;82.70;96879.65;4466158;80;21124;-88
2020/12/28 04:31:37;;;;;;;8.93;4.30;;;;;;;-0.49;83.38;96861.63;4477072;79;21164;-88
2020/12/28 04:37:39;;;;;;;12.20;4.40;;;;;;;-0.49;83.36;96854.91;4476890;79;21152;-87
2020/12/28 04:43:41;;;;;;;12.90;5.47;;;;;;;-0.54;83.09;96853.84;4469895;79;21283;-87
2020/12/28 04:49:46;;;;;;;11.47;4.90;;;;;;;-0.74;83.28;96844.78;4512489;79;21133;-86
2020/12/28 04:55:47;;;;;;;11.40;5.03;;;;;;;-0.81;83.23;96832.53;4477553;79;21125;-88
2020/12/28 05:01:53;;;;;;;9.17;4.17;;;;;;;-0.90;84.04;96837.34;4499513;79;21129;-87
2020/12/28 05:07:55;;;;;;;7.85;3.52;;;;;;;-0.87;84.33;96841.45;4473234;80;21598;-87
2020/12/28 05:13:56;;;;;;;8.97;3.93;;;;;;;-0.91;83.84;96824.47;4473178;80;21136;-88
2020/12/28 05:20:03;;;;;;;10.20;4.17;;;;;;;-0.87;84.08;96803.06;4503177;79;21158;-88
2020/12/28 05:26:05;;;;;;;8.87;4.00;;;;;;;-0.97;83.97;96793.66;4485376;78;21145;-87
2020/12/28 05:32:13;;;;;;;9.60;3.37;;;;;;;-0.97;84.50;96799.03;4480216;79;21156;-87
2020/12/28 05:38:15;;;;;;;3.50;1.73;;;;;;;-0.93;84.77;96782.98;4481226;79;21120;-86
2020/12/28 05:44:16;;;;;;;4.17;1.80;;;;;;;-0.27;85.39;96761.98;4471737;80;21140;-86
2020/12/28 05:50:24;;;;;;;2.50;1.43;;;;;;;0.16;84.82;96756.73;4491379;79;21184;-88
2020/12/28 05:56:26;;;;;;;3.90;1.30;;;;;;;0.30;84.90;96735.42;4472716;79;21430;-86
2020/12/28 06:02:28;;;;;;;5.08;1.20;;;;;;;0.43;84.75;96729.45;4464613;80;21590;-86
2020/12/28 06:08:29;;;;;;;4.22;2.02;;;;;;;0.44;84.73;96736.38;4493815;79;21139;-87
2020/12/28 06:14:39;;;;;;;7.25;2.70;;;;;;;0.45;84.77;96731.23;4491454;79;21252;-88
2020/12/28 06:20:40;;;;;;;9.80;2.37;;;;;;;0.13;84.22;96729.19;4510921;79;21626;-86
2020/12/28 06:26:42;;;;;;;7.47;3.40;;;;;;;-0.07;85.82;96745.43;4485341;79;21129;-87
2020/12/28 06:32:47;;;;;;;7.07;2.80;;;;;;;-0.21;85.91;96764.02;4474848;79;21935;-87
2020/12/28 06:38:59;;;;;;;5.53;2.47;;;;;;;-0.24;85.37;96767.42;4486324;79;21141;-88
2020/12/28 06:45:14;;;;;;;11.37;5.73;;;;;;;-0.49;86.23;96815.93;4514908;79;21145;-87
2020/12/28 06:51:16;;;;;;;24.27;9.60;;;;;;;-0.44;86.13;96781.27;4515195;77;21129;-86
2020/12/28 06:57:24;;;;;;;27.85;10.05;;;;;;;-0.19;86.42;96767.69;4515110;79;21158;-86
2020/12/28 07:03:26;;;;;;;46.83;18.43;;;;;;;-0.14;85.90;96748.55;4514928;79;21598;-88
2020/12/28 07:09:28;;;;;;;19.90;7.53;;;;;;;-0.05;86.09;96762.55;4499736;79;21161;-86
2020/12/28 07:15:29;;;;;;;53.63;22.43;;;;;;;-0.34;85.54;96741.13;4511342;79;21152;-88
2020/12/28 07:21:32;;;;;;;10.48;4.03;;;;;;;-0.43;85.81;96715.05;4495044;79;21342;-87
2020/12/28 07:27:34;;;;;;;34.60;15.00;;;;;;;-0.36;87.43;96715.75;4512134;78;21418;-88
2020/12/28 07:33:45;;;;;;;18.00;5.40;;;;;;;-0.08;86.29;96728.31;4495743;79;21561;-89
2020/12/28 07:39:48;;;;;;;23.65;8.60;;;;;;;-0.21;86.92;96754.61;4479819;79;21568;-87
2020/12/28 07:45:51;;;;;;;20.23;8.60;;;;;;;0.28;87.25;96745.77;4483606;79;21592;-89
2020/12/28 07:59:48;;;;;;;10.50;5.35;;;;;;;1.39;86.71;96683.66;4423184;79;21543;-88
2020/12/28 08:19:34;;;;;;;20.27;7.42;;;;;;;2.75;86.40;96652.03;4405011;80;21141;-89
2020/12/28 08:25:36;;;;;;;18.65;7.53;;;;;;;3.11;86.02;96640.19;4410029;81;21157;-89
2020/12/28 08:31:38;;;;;;;36.95;13.88;;;;;;;3.33;85.61;96641.78;4409093;81;21630;-91
2020/12/28 08:37:49;;;;;;;11.20;4.10;;;;;;;3.44;85.49;96630.40;4411174;81;21705;-88
2020/12/28 08:43:51;;;;;;;7.53;3.67;;;;;;;3.58;85.25;96620.94;4403915;81;21113;-90
2020/12/28 08:49:52;;;;;;;8.38;5.22;;;;;;;3.79;85.21;96614.76;4413745;79;21580;-90
2020/12/28 08:56:00;;;;;;;7.35;3.95;;;;;;;3.83;84.65;96627.69;4404781;79;21141;-91
2020/12/28 09:02:05;;;;;;;13.90;6.10;;;;;;;3.80;84.49;96626.55;4409997;81;21823;-91
2020/12/28 09:08:07;;;;;;;20.35;8.93;;;;;;;4.08;84.92;96610.84;4405873;79;21470;-91
2020/12/28 09:14:09;;;;;;;29.32;10.98;;;;;;;4.86;85.51;96604.02;4418473;79;21621;-89
2020/12/28 09:20:13;;;;;;;22.95;11.03;;;;;;;6.12;85.34;96585.47;4454432;78;21156;-92
2020/12/28 09:26:14;;;;;;;23.75;10.10;;;;;;;7.12;84.42;96565.45;4418218;78;21134;-91
2020/12/28 09:32:16;;;;;;;10.93;5.30;;;;;;;7.97;83.71;96560.97;4434799;78;21136;-90
2020/12/28 09:38:17;;;;;;;8.50;4.33;;;;;;;8.61;82.92;96548.91;4435418;80;21410;-93
2020/12/28 09:44:19;;;;;;;11.33;5.22;;;;;;;9.05;82.00;96543.66;4440742;79;21176;-90
2020/12/28 09:50:21;;;;;;;6.40;3.80;;;;;;;9.42;81.10;96532.31;4446021;79;21674;-90
2020/12/28 09:56:22;;;;;;;9.40;4.28;;;;;;;9.62;80.33;96534.17;4448286;78;21133;-93
2020/12/28 10:02:24;;;;;;;7.35;4.20;;;;;;;9.01;79.12;96533.44;4445551;78;21175;-91
2020/12/28 10:08:25;;;;;;;10.70;4.55;;;;;;;8.33;78.97;96535.22;4439345;80;21292;-91
2020/12/28 10:14:27;;;;;;;7.12;3.80;;;;;;;7.82;78.74;96538.48;4445793;80;21154;-91
2020/12/28 10:20:28;;;;;;;15.50;8.55;;;;;;;7.45;77.96;96535.41;4446450;78;22118;-91
2020/12/28 10:26:30;;;;;;;11.28;6.22;;;;;;;;;;4442803;78;21605;-91
2020/12/28 10:32:32;;;;;;;17.77;6.85;;;;;;;6.89;74.99;96517.79;4439859;78;21122;-91
2020/12/28 10:38:33;;;;;;;13.70;7.22;;;;;;;6.80;76.98;96514.20;4434454;78;21110;-92
2020/12/28 10:44:34;;;;;;;15.13;7.55;;;;;;;6.81;76.86;96501.39;4445374;80;21133;-90
2020/12/28 10:50:36;;;;;;;11.10;6.47;;;;;;;6.84;74.08;96504.06;4452892;79;21574;-92
2020/12/28 10:56:37;;;;;;;9.23;4.28;;;;;;;6.98;73.15;96509.30;4445037;78;21109;-91
2020/12/28 11:02:39;;;;;;;6.85;4.90;;;;;;;7.33;70.15;96510.11;4439933;79;21179;-92
2020/12/28 11:08:40;;;;;;;7.65;3.50;;;;;;;7.62;66.12;96519.95;4435751;78;21153;-92
2020/12/28 11:14:42;;;;;;;6.22;2.98;;;;;;;7.69;71.33;96520.60;4443832;80;21602;-91
2020/12/28 11:20:51;;;;;;;54.08;38.40;;;;;;;7.49;71.93;96543.50;4431385;80;21326;-91
2020/12/28 11:26:53;;;;;;;10.98;5.25;;;;;;;7.20;71.30;96551.34;4426582;80;21125;-93
2020/12/28 11:32:55;;;;;;;8.10;3.52;;;;;;;7.00;72.01;96565.40;4428288;79;21136;-92
2020/12/28 11:38:57;;;;;;;10.38;6.22;;;;;;;6.83;70.53;96561.58;4431060;79;21590;-90
2020/12/28 11:44:59;;;;;;;4.55;2.50;;;;;;;6.71;71.69;96564.82;4426894;79;21624;-92
2020/12/28 11:51:04;;;;;;;2.10;1.30;;;;;;;6.84;65.66;96553.59;4420349;79;21578;-91
2020/12/28 11:57:05;;;;;;;43.50;17.35;;;;;;;7.29;58.26;96567.14;4424305;79;21125;-88
2020/12/28 12:03:07;;;;;;;110.10;38.70;;;;;;;7.39;58.33;96574.39;4431597;79;21121;-92
2020/12/28 12:09:10;;;;;;;12.88;5.08;;;;;;;7.38;57.30;96560.00;4429333;79;21259;-93
2020/12/28 12:15:12;;;;;;;43.08;15.65;;;;;;;7.31;57.38;96564.78;4427122;79;21133;-90
2020/12/28 12:21:13;;;;;;;26.70;10.45;;;;;;;7.21;58.94;96552.09;4413318;79;21220;-89
2020/12/28 12:27:15;;;;;;;3.92;2.30;;;;;;;7.13;57.53;96552.02;4415493;79;21758;-93
2020/12/28 12:33:16;;;;;;;3.50;1.90;;;;;;;7.10;57.08;96528.34;4415416;79;21155;-91
2020/12/28 12:39:18;;;;;;;4.67;2.47;;;;;;;7.03;58.01;96525.14;4414806;79;21198;-92
2020/12/28 12:45:19;;;;;;;6.53;2.60;;;;;;;6.90;60.19;96515.23;4411987;79;21157;-91
2020/12/28 12:51:22;;;;;;;1.55;0.93;;;;;;;6.86;57.55;96537.03;4413695;79;21701;-93
2020/12/28 12:57:26;;;;;;;2.58;1.15;;;;;;;6.82;59.75;96562.73;4414998;79;21146;-91
2020/12/28 13:03:28;;;;;;;3.15;1.70;;;;;;;6.68;58.95;96565.64;4419621;79;21117;-91
2020/12/28 13:09:29;;;;;;;3.02;0.98;;;;;;;6.62;60.30;96587.66;4416310;79;21592;-90
2020/12/28 13:15:30;;;;;;;2.30;1.30;;;;;;;6.70;57.83;96582.32;4406789;79;21157;-91
2020/12/28 13:21:32;;;;;;;5.42;2.50;;;;;;;6.69;59.87;96596.49;4432358;79;21134;-92
2020/12/28 13:27:33;;;;;;;2.85;1.17;;;;;;;6.71;59.11;96609.68;4429425;78;22371;-92
2020/12/28 13:33:35;;;;;;;6.33;2.15;;;;;;;6.63;60.88;96614.44;4432172;78;21603;-93
2020/12/28 13:39:40;;;;;;;9.33;2.98;;;;;;;6.56;59.66;96622.69;4439252;79;21491;-92
2020/12/28 13:45:41;;;;;;;1.37;0.98;;;;;;;6.55;59.85;96623.84;4424867;79;21657;-91
2020/12/28 13:51:43;;;;;;;2.12;1.10;;;;;;;6.66;58.41;96629.16;4433002;79;21158;-89
2020/12/28 13:57:44;;;;;;;2.33;1.25;;;;;;;6.75;57.69;96626.73;4430815;78;21149;-89
2020/12/28 14:03:46;;;;;;;1.45;0.75;;;;;;;6.83;57.80;96633.03;4430052;79;21614;-91
2020/12/28 14:09:47;;;;;;;2.47;0.90;;;;;;;6.89;57.64;96634.13;4431216;79;21169;-90
2020/12/28 14:15:49;;;;;;;2.40;1.17;;;;;;;6.87;57.32;96620.18;4429285;79;21185;-90
2020/12/28 14:21:50;;;;;;;3.98;1.10;;;;;;;6.73;59.16;96642.68;4442299;78;21432;-92
2020/12/28 14:27:52;;;;;;;2.17;1.15;;;;;;;6.66;58.98;96659.05;4453885;78;21129;-93
2020/12/28 14:33:53;;;;;;;2.75;1.10;;;;;;;6.60;58.95;96664.76;4442376;78;21117;-92
2020/12/28 14:39:55;;;;;;;3.83;1.80;;;;;;;6.49;59.96;96691.27;4456072;78;21635;-88
2020/12/28 14:45:56;;;;;;;3.60;1.40;;;;;;;6.56;59.29;96677.05;4449659;78;21150;-93
2020/12/28 14:51:58;;;;;;;2.27;1.12;;;;;;;6.53;59.49;96652.00;4449852;78;21530;-93
2020/12/28 14:57:59;;;;;;;2.77;1.15;;;;;;;6.52;59.44;96671.44;4446232;78;21197;-90
2020/12/28 15:04:01;;;;;;;2.30;0.85;;;;;;;6.50;59.39;96653.42;4444233;78;21877;-87
2020/12/28 15:10:03;;;;;;;3.62;1.27;;;;;;;6.51;59.28;96631.86;4446936;78;21182;-90
2020/12/28 15:16:06;;;;;;;4.45;1.92;;;;;;;6.49;58.67;96632.84;4444253;78;21283;-90
2020/12/28 15:22:07;;;;;;;1.67;0.90;;;;;;;6.48;59.18;96628.59;4427025;79;21769;-89
2020/12/28 15:28:10;;;;;;;4.20;1.77;;;;;;;6.61;57.64;96648.04;4422821;79;21764;-89
2020/12/28 15:34:11;;;;;;;4.90;2.20;;;;;;;6.72;57.54;96632.38;4425689;79;21622;-91
2020/12/28 15:40:13;;;;;;;3.85;1.80;;;;;;;6.80;57.43;96650.73;4427185;79;21149;-89
2020/12/28 15:46:14;;;;;;;11.38;6.20;;;;;;;6.74;56.61;96674.90;4428365;79;21153;-93
2020/12/28 15:52:16;;;;;;;5.80;2.77;;;;;;;6.77;57.17;96678.75;4424983;79;21136;-92
2020/12/28 15:58:17;;;;;;;5.30;2.85;;;;;;;6.75;56.72;96696.08;4422636;79;21594;-92
2020/12/28 16:04:22;;;;;;;6.17;2.60;;;;;;;6.64;58.11;96715.80;4428274;79;21136;-92
2020/12/28 16:10:22;;;;;;;8.70;4.03;;;;;;;6.47;58.43;96727.61;4429422;80;21161;-89
2020/12/28 16:16:24;;;;;;;4.92;2.30;;;;;;;6.33;58.59;96716.27;4428701;79;21392;-92
2020/12/28 16:22:26;;;;;;;9.93;3.90;;;;;;;6.21;57.83;96731.13;4425301;80;21612;-92
2020/12/28 16:28:28;;;;;;;12.80;6.08;;;;;;;6.28;58.73;96738.42;4428441;80;21132;-92
2020/12/28 16:34:30;;;;;;;18.05;9.20;;;;;;;6.13;58.76;96739.14;4430304;79;21673;-91
2020/12/28 16:40:31;;;;;;;28.23;13.20;;;;;;;6.11;58.60;96747.48;4430443;80;21601;-92
2020/12/28 16:46:33;;;;;;;21.27;9.50;;;;;;;6.01;59.05;96741.56;4424425;79;21614;-91
2020/12/28 16:52:34;;;;;;;17.35;8.55;;;;;;;5.86;59.30;96729.23;4415934;80;21637;-92
2020/12/28 16:58:36;;;;;;;13.22;6.35;;;;;;;5.85;58.86;96712.19;4426623;80;21639;-92
2020/12/28 17:04:38;;;;;;;22.22;9.73;;;;;;;6.11;57.81;96702.09;4418899;80;21160;-91
2020/12/28 17:10:39;;;;;;;17.20;7.78;;;;;;;6.23;57.76;96702.95;4422093;80;21164;-92
2020/12/28 17:16:46;;;;;;;17.02;8.18;;;;;;;6.20;58.37;96706.47;4429297;79;21113;-93
2020/12/28 17:22:50;;;;;;;19.48;9.40;;;;;;;6.15;58.64;96692.56;4412756;80;21354;-91
2020/12/28 17:28:51;;;;;;;14.00;6.83;;;;;;;6.01;58.78;96709.72;4400029;79;21154;-92
2020/12/28 17:34:53;;;;;;;30.50;10.50;;;;;;;5.75;59.20;96696.70;4416832;80;21141;-90
2020/12/28 17:40:56;;;;;;;29.35;12.15;;;;;;;5.47;59.49;96673.81;4421008;79;21132;-90
2020/12/28 17:54:03;;;;;;;39.40;18.42;;;;;;;4.92;60.40;96667.49;4379819;79;21120;-90
2020/12/28 18:00:05;;;;;;;34.13;17.25;;;;;;;4.81;61.12;96653.21;4417242;79;21180;-91
2020/12/28 18:06:10;;;;;;;40.03;18.65;;;;;;;4.66;61.62;96666.62;4414178;79;21625;-91
2020/12/28 18:12:13;;;;;;;39.73;18.57;;;;;;;4.51;62.03;96663.78;4417595;79;21694;-90
2020/12/28 18:18:14;;;;;;;47.83;22.48;;;;;;;4.34;62.09;96676.18;4418513;78;21150;-90
2020/12/28 18:24:16;;;;;;;86.25;34.38;;;;;;;4.05;62.65;96663.06;4444173;78;21153;-90
2020/12/28 18:30:17;;;;;;;67.32;27.45;;;;;;;3.87;63.10;96652.23;4436200;78;21177;-92
2020/12/28 18:36:20;;;;;;;61.85;26.05;;;;;;;3.67;63.88;96628.66;4432494;78;21256;-90
2020/12/28 18:42:22;;;;;;;61.75;26.90;;;;;;;3.56;64.22;96632.72;4416808;78;21165;-90
2020/12/28 18:48:23;;;;;;;54.25;23.98;;;;;;;3.48;64.49;96649.34;4446641;78;21234;-90
2020/12/28 18:54:32;;;;;;;44.95;19.92;;;;;;;3.57;65.07;96643.72;4431042;78;21097;-91
2020/12/28 19:00:34;;;;;;;41.30;17.42;;;;;;;3.78;65.06;96639.69;4438230;78;21612;-90
2020/12/28 19:06:35;;;;;;;34.98;15.98;;;;;;;3.91;65.03;96618.41;4440745;78;21572;-90
2020/12/28 19:12:37;;;;;;;39.20;20.62;;;;;;;3.97;65.19;96614.15;4324320;78;9999913;-92
2020/12/28 19:18:39;;;;;;;47.78;21.40;;;;;;;4.05;65.29;96615.69;4450051;78;21182;-92
2020/12/28 19:24:40;;;;;;;38.60;17.30;;;;;;;4.04;65.26;96608.14;4433789;80;21158;-90
2020/12/28 19:30:42;;;;;;;34.67;17.07;;;;;;;3.93;65.50;96605.27;4418917;79;21149;-91
2020/12/28 19:36:44;;;;;;;39.88;19.52;;;;;;;3.88;65.62;96590.77;4434079;78;21137;-92
2020/12/28 19:42:46;;;;;;;33.58;14.28;;;;;;;3.91;66.13;96593.48;4426624;78;21591;-92
2020/12/28 19:48:47;;;;;;;29.15;13.20;;;;;;;3.91;66.32;96571.83;4421398;79;21781;-92
2020/12/28 19:54:49;;;;;;;28.57;13.22;;;;;;;4.03;66.38;96578.75;4427757;79;21134;-91
2020/12/28 20:00:50;;;;;;;32.80;14.45;;;;;;;4.06;66.47;96573.34;4410804;80;21152;-92
2020/12/28 20:06:54;;;;;;;29.48;14.00;;;;;;;3.94;66.73;96558.09;4442078;79;21125;-92
2020/12/28 20:12:55;;;;;;;36.08;14.63;;;;;;;3.66;66.90;96542.67;4429690;78;21307;-91
2020/12/28 20:18:57;;;;;;;28.70;13.70;;;;;;;3.44;67.18;96532.25;4435926;80;21149;-91
2020/12/28 20:24:58;;;;;;;32.45;14.33;;;;;;;3.38;67.65;96543.27;4446150;78;21176;-91
2020/12/28 20:31:00;;;;;;;103.17;39.42;;;;;;;3.33;67.76;96526.85;4446437;78;21157;-91
2020/12/28 20:37:02;;;;;;;28.40;11.85;;;;;;;3.29;68.36;96518.55;4460867;78;21158;-91
2020/12/28 20:43:09;;;;;;;26.37;9.53;;;;;;;3.27;68.48;96517.59;4442371;78;21325;-92
2020/12/28 20:49:11;;;;;;;26.52;11.53;;;;;;;3.37;69.21;96513.34;4444392;79;21457;-93
2020/12/28 20:55:12;;;;;;;23.38;10.18;;;;;;;3.44;69.12;96506.56;4447116;79;21157;-93
2020/12/28 21:01:14;;;;;;;27.48;11.73;;;;;;;3.40;69.69;96505.20;4445956;78;21311;-90
2020/12/28 21:07:18;;;;;;;42.78;19.27;;;;;;;3.35;69.91;96497.50;4447620;78;21252;-91
2020/12/28 21:13:23;;;;;;;36.25;17.27;;;;;;;3.23;70.41;96487.84;4448243;78;21137;-91
2020/12/28 21:19:24;;;;;;;44.00;17.87;;;;;;;3.13;70.50;96462.17;4469479;78;21172;-91
2020/12/28 21:25:26;;;;;;;42.50;19.12;;;;;;;2.95;70.86;96456.77;4448466;78;21719;-90
2020/12/28 21:31:27;;;;;;;32.00;14.55;;;;;;;2.78;70.80;96462.15;4449762;78;21181;-92
2020/12/28 21:37:32;;;;;;;41.08;18.00;;;;;;;2.55;71.04;96442.23;4442660;78;21118;-91
2020/12/28 21:43:33;;;;;;;42.15;19.55;;;;;;;2.25;71.77;96440.47;4447978;78;21188;-90
2020/12/28 21:49:35;;;;;;;41.37;18.90;;;;;;;1.94;72.41;96426.87;4449086;78;21174;-92
2020/12/28 21:55:36;;;;;;;40.38;19.07;;;;;;;1.87;72.44;96409.30;4444110;78;21129;-92
2020/12/28 22:01:43;;;;;;;46.28;19.50;;;;;;;1.69;72.77;96399.81;4445958;78;21154;-92
2020/12/28 22:07:45;;;;;;;41.00;16.73;;;;;;;1.48;73.20;96399.70;4445259;80;21141;-90
2020/12/28 22:13:47;;;;;;;53.58;21.65;;;;;;;1.47;73.63;96395.47;4454323;78;21126;-90
2020/12/28 22:19:49;;;;;;;12.43;7.42;;;;;;;1.48;73.92;96390.27;4439104;79;21141;-91
2020/12/28 22:25:50;;;;;;;15.68;6.95;;;;;;;2.02;75.02;96381.22;4430155;78;21129;-91
2020/12/28 22:31:54;;;;;;;10.05;5.55;;;;;;;3.12;75.39;96370.84;4432397;79;21165;-92
2020/12/28 22:37:56;;;;;;;10.75;6.03;;;;;;;3.18;74.48;96371.20;4441113;79;21138;-91
2020/12/28 22:43:58;;;;;;;23.65;9.53;;;;;;;3.16;74.58;96362.12;4431390;79;21110;-90
2020/12/28 22:50:00;;;;;;;15.28;6.65;;;;;;;3.15;74.63;96347.65;4425583;80;21287;-92
2020/12/28 22:56:02;;;;;;;17.30;6.75;;;;;;;3.07;74.54;96350.17;4438979;79;21129;-91
2020/12/28 23:02:05;;;;;;;7.37;4.12;;;;;;;2.85;74.70;96339.23;4429690;80;21142;-92
2020/12/28 23:08:07;;;;;;;5.67;3.87;;;;;;;3.77;77.17;96337.02;4431877;79;21173;-92
2020/12/28 23:14:10;;;;;;;7.97;3.67;;;;;;;4.74;75.51;96327.42;4433772;79;21161;-92
2020/12/28 23:20:11;;;;;;;6.33;3.50;;;;;;;5.17;74.66;96314.84;4430692;79;21555;-91
2020/12/28 23:26:14;;;;;;;6.25;3.30;;;;;;;5.25;74.29;96310.86;4443212;79;21121;-91
2020/12/28 23:32:16;;;;;;;7.37;4.20;;;;;;;5.03;73.86;96291.95;4450214;79;21137;-90
2020/12/28 23:38:17;;;;;;;7.58;3.52;;;;;;;4.75;74.26;96286.98;4445695;80;21128;-91
2020/12/28 23:44:19;;;;;;;5.35;2.80;;;;;;;4.75;74.55;96274.01;4449862;79;21471;-91
2020/12/28 23:50:20;;;;;;;5.15;2.80;;;;;;;5.12;74.78;96262.41;4442907;79;21149;-90
2020/12/28 23:56:35;;;;;;;4.75;3.00;;;;;;;5.52;74.47;96262.30;4442926;79;21554;-91
